Thursday, April 26, 2018, 4:49 PM EDT
Back to Local

KORF, Norfolk International Airport

Location: Norfolk, VA, United States Lat: 36.9
Local Time: 4:49 PM EDT (20:49 GMT) Lon: -76.2
Time Zone: US/Eastern Elev: 26 ft

Show me the last for .
Show Decoded

2018-04-26 15:51 METAR KORF 261951Z 06009KT 10SM CLR 19/07 A2986 RMK AO2 SLP112 T01890067 =
2018-04-26 14:51 METAR KORF 261851Z 04009KT 10SM CLR 19/07 A2988 RMK AO2 SLP116 T01890072 =
2018-04-26 13:51 METAR KORF 261751Z 00000KT 10SM CLR 19/06 A2989 RMK AO2 SLP121 6//// T01890061
                 10189 20150 58001 =
2018-04-26 12:51 METAR KORF 261651Z 10SM FEW035 17/06 A2989 RMK AO2 SLP122 T01720056 $ =
2018-04-26 11:51 METAR KORF 261551Z 01005KT A2990 RMK AO2 SLP126 PNO $ =
2018-04-26 10:51 METAR KORF 261451Z 36008KT 10SM FEW041 16/07 A2989 RMK AO2 SLP122 T01560067
                 51012 =
2018-04-26 09:51 METAR KORF 261351Z 36007KT 10SM SCT048 OVC070 15/08 A2989 RMK AO2 SLP121
                 T01500083 =
2018-04-26 08:51 METAR KORF 261251Z 35008KT 10SM BKN046 OVC055 15/09 A2988 RMK AO2 SLP118
                 T01500089 =
2018-04-26 07:51 METAR KORF 261151Z 34004KT 10SM BKN046 OVC055 16/11 A2986 RMK AO2 SLP111 70098
                 T01560111 10161 20156 53023 =
2018-04-26 06:51 METAR KORF 261051Z 35003KT 10SM BKN045 OVC070 16/11 A2984 RMK AO2 SLP103
                 T01560106 =
2018-04-26 05:51 METAR KORF 260951Z 34006KT 10SM SCT047 OVC070 16/11 A2981 RMK AO2 SLP095
                 T01610111 =
2018-04-26 04:51 METAR KORF 260851Z 33004KT 10SM OVC060 16/14 A2979 RMK AO2 SLP088 T01610139
                 53013 =
2018-04-26 03:51 METAR KORF 260751Z 00000KT 10SM BKN070 16/15 A2978 RMK AO2 SLP083 T01560150 =
2018-04-26 02:51 METAR KORF 260651Z 26004KT 10SM OVC070 16/15 A2976 RMK AO2 SLP077 T01560150 =
2018-04-26 01:51 METAR KORF 260551Z 25004KT 10SM FEW070 16/14 A2975 RMK AO2 SLP075 T01560144
                 10172 20156 53008 =
2018-04-26 00:51 METAR KORF 260451Z 24004KT 10SM CLR 16/14 A2975 RMK AO2 SLP073 T01560144
                 402440139 =
2018-04-25 23:51 METAR KORF 260351Z 26004KT 10SM CLR 16/15 A2974 RMK AO2 SLP069 T01610150 =
2018-04-25 22:51 METAR KORF 260251Z VRB03KT 10SM CLR 16/15 A2973 RMK AO2 SLP067 T01610150 50012 =
2018-04-25 21:51 METAR KORF 260151Z VRB03KT 10SM SCT065 17/16 A2974 RMK AO2 SLP069 T01670156 =
2018-04-25 20:51 METAR KORF 260051Z 27004KT 10SM SCT023 17/15 A2973 RMK AO2 SLP068 T01670150 =
2018-04-25 20:35 METAR KORF 260035Z 27004KT 10SM BKN022 BKN110 17/16 A2972 RMK AO2 T01720156 =
2018-04-25 19:51 METAR KORF 252351Z 26004KT 10SM FEW032 BKN055 OVC065 17/16 A2970 RMK AO2 LTG
                 DSNT SE SLP056 60098 T01720156 10244 20161 53009 =
2018-04-25 18:51 METAR KORF 252251Z 00000KT 10SM BKN031 BKN042 18/16 A2968 RMK AO2 SLP050
                 T01780156 =
2018-04-25 17:51 METAR KORF 252151Z 04003KT 10SM FEW025 SCT050 SCT090 17/16 A2967 RMK AO2
                 RAE2057B31E47 SLP045 P0002 T01720161 =
2018-04-25 17:11 METAR KORF 252111Z 00000KT 9SM FEW008 SCT021 SCT027 17/16 A2967 =
2018-04-25 17:04 METAR KORF 252104Z 03004KT 10SM SCT008 BKN024 17/16 A2967 RMK AO2 RAE2057 P0000
                 T01670156 =
2018-04-25 16:51 METAR KORF 252051Z 02005KT 3SM -RA BR BKN010 BKN021 OVC049 17/15 A2967 RMK AO2
                 RAE09B29 SLP047 P0096 60096 T01670150 55001 =

Support USWX by starting your Amazon purchase here.